Time;durP1;ratioP1;P1;durP2;ratioP2;P2;SDS_P1;SDS_P2;PMS_P1;PMS_P2;Temp;Humidity;BMP_temperature;BMP_pressure;BME280_temperature;BME280_humidity;BME280_pressure;Samples;Min_cycle;Max_cycle;Signal;HPM_P1;HPM_P2
2023/04/19 00:00:37;;;;;;;5.03;3.87;;;14.90;93.10;;;;;;5048947;28;20179;-75
2023/04/19 00:03:05;;;;;;;4.80;4.17;;;14.90;93.30;;;;;;5048256;28;20599;-75
2023/04/19 00:05:30;;;;;;;5.07;3.40;;;14.90;93.30;;;;;;5048873;28;20694;-76
2023/04/19 00:07:56;;;;;;;4.00;3.43;;;14.90;93.60;;;;;;5049813;28;20679;-76
2023/04/19 00:10:22;;;;;;;4.23;3.23;;;14.90;93.70;;;;;;5036795;28;20512;-76
2023/04/19 00:12:48;;;;;;;3.53;2.87;;;14.90;93.50;;;;;;5033582;28;20177;-76
2023/04/19 00:15:13;;;;;;;4.77;3.60;;;14.90;93.50;;;;;;5031915;28;20698;-76
2023/04/19 00:17:39;;;;;;;5.03;4.03;;;14.90;94.10;;;;;;5046814;28;20191;-76
2023/04/19 00:20:07;;;;;;;4.70;3.90;;;14.80;93.90;;;;;;5049274;28;20177;-76
2023/04/19 00:22:33;;;;;;;4.70;3.83;;;14.80;93.90;;;;;;5032369;28;20585;-76
2023/04/19 00:24:59;;;;;;;4.67;3.40;;;14.90;94.00;;;;;;5032964;28;20650;-76
2023/04/19 00:27:24;;;;;;;5.20;4.13;;;14.90;94.10;;;;;;5015455;28;20596;-76
2023/04/19 00:29:50;;;;;;;4.50;3.60;;;14.90;94.50;;;;;;5015654;28;20726;-76
2023/04/19 00:32:16;;;;;;;4.10;3.70;;;14.80;94.60;;;;;;5031795;28;20174;-76
2023/04/19 00:34:41;;;;;;;5.10;3.57;;;14.80;94.30;;;;;;5032089;28;20192;-76
2023/04/19 00:37:08;;;;;;;4.03;3.00;;;14.90;94.70;;;;;;5031569;28;20186;-76
2023/04/19 00:39:34;;;;;;;3.35;2.90;;;14.80;94.50;;;;;;5034373;28;20181;-76
2023/04/19 00:42:02;;;;;;;6.00;3.70;;;14.80;94.60;;;;;;5031581;28;20184;-76
2023/04/19 00:44:28;;;;;;;5.30;4.10;;;14.80;94.60;;;;;;5015826;28;20174;-83
2023/04/19 00:46:55;;;;;;;5.83;4.20;;;14.80;94.90;;;;;;5034873;28;20621;-82
2023/04/19 00:49:22;;;;;;;5.17;4.43;;;14.80;94.80;;;;;;4999901;28;20296;-82
2023/04/19 00:51:49;;;;;;;4.63;4.13;;;14.80;94.80;;;;;;5039727;28;20663;-82
2023/04/19 00:54:16;;;;;;;3.55;2.95;;;14.80;94.80;;;;;;5032710;28;20173;-82
2023/04/19 00:56:43;;;;;;;4.43;3.83;;;14.90;94.90;;;;;;5052589;28;20203;-82
2023/04/19 00:59:10;;;;;;;4.97;3.53;;;14.80;94.90;;;;;;5051264;28;20271;-83
2023/04/19 01:01:37;;;;;;;6.47;2.97;;;14.90;95.10;;;;;;5047562;28;20592;-83
2023/04/19 01:04:03;;;;;;;4.60;3.40;;;14.80;95.30;;;;;;5030946;28;20213;-83
2023/04/19 01:06:29;;;;;;;4.43;3.60;;;14.80;95.20;;;;;;5031376;28;20570;-76
2023/04/19 01:08:55;;;;;;;4.55;3.85;;;14.80;95.20;;;;;;5014881;28;20197;-76
2023/04/19 01:11:25;;;;;;;3.97;3.57;;;14.80;95.30;;;;;;5012166;28;20181;-76
2023/04/19 01:13:51;;;;;;;3.53;2.97;;;14.80;95.50;;;;;;5013361;28;20662;-76
2023/04/19 01:16:17;;;;;;;4.53;3.33;;;14.80;95.50;;;;;;5033381;28;20597;-76
2023/04/19 01:18:43;;;;;;;3.50;3.15;;;14.70;95.50;;;;;;5014654;28;20581;-77
2023/04/19 01:21:10;;;;;;;5.03;3.80;;;14.80;96.00;;;;;;5014280;28;20274;-76
2023/04/19 01:23:37;;;;;;;7.05;5.38;;;14.70;95.70;;;;;;5014461;28;20213;-77
2023/04/19 01:26:04;;;;;;;4.43;3.95;;;14.80;95.80;;;;;;5014450;28;20215;-76
2023/04/19 01:28:30;;;;;;;5.53;4.83;;;14.80;96.00;;;;;;5030659;28;20212;-77
2023/04/19 01:30:55;;;;;;;5.20;4.70;;;14.70;96.00;;;;;;5014218;28;20577;-77
2023/04/19 01:33:21;;;;;;;5.87;5.00;;;14.70;96.10;;;;;;5014306;28;20166;-77
2023/04/19 01:35:47;;;;;;;6.77;4.97;;;14.80;96.80;;;;;;5014400;28;21175;-77
2023/04/19 01:38:14;;;;;;;5.93;5.33;;;14.80;96.40;;;;;;5014285;28;20532;-76
2023/04/19 01:40:43;;;;;;;4.73;4.10;;;14.70;96.40;;;;;;5030849;28;20683;-77
2023/04/19 01:43:13;;;;;;;7.00;6.40;;;14.70;96.40;;;;;;5014282;28;20907;-76
2023/04/19 01:45:39;;;;;;;4.97;4.40;;;14.70;96.80;;;;;;4997189;28;20647;-75
2023/04/19 01:48:05;;;;;;;7.10;5.00;;;14.70;96.60;;;;;;5030595;28;20170;-76
2023/04/19 01:50:34;;;;;;;4.95;4.43;;;14.60;96.50;;;;;;5030160;28;20173;-75
2023/04/19 01:53:00;;;;;;;5.30;4.68;;;14.60;96.60;;;;;;5030572;28;20257;-76
2023/04/19 01:55:28;;;;;;;4.57;4.00;;;14.60;96.60;;;;;;5013634;28;20185;-76
2023/04/19 01:57:56;;;;;;;4.97;4.47;;;14.60;96.70;;;;;;5014091;28;20565;-76
2023/04/19 02:00:22;;;;;;;7.20;4.53;;;14.50;96.80;;;;;;5030421;28;20217;-76
2023/04/19 02:02:48;;;;;;;5.57;5.07;;;14.50;97.20;;;;;;5030320;28;20620;-76
2023/04/19 02:05:14;;;;;;;5.30;4.60;;;14.50;97.00;;;;;;5031843;28;20189;-76
2023/04/19 02:07:40;;;;;;;8.60;6.43;;;14.50;97.10;;;;;;5029975;28;20588;-75
2023/04/19 02:10:10;;;;;;;5.10;4.60;;;14.40;97.30;;;;;;5030395;28;21218;-76
2023/04/19 02:12:36;;;;;;;5.83;4.63;;;14.40;97.60;;;;;;5029687;28;20169;-76
2023/04/19 02:15:02;;;;;;;5.30;4.80;;;14.40;97.50;;;;;;5030194;28;20957;-77
2023/04/19 02:17:33;;;;;;;6.65;5.00;;;14.30;97.60;;;;;;4997873;28;20580;-77
2023/04/19 02:19:59;;;;;;;5.47;4.80;;;14.40;97.70;;;;;;5013833;28;20185;-77
2023/04/19 02:22:26;;;;;;;4.97;4.55;;;14.40;97.80;;;;;;5012551;28;20638;-77
2023/04/19 02:24:51;;;;;;;6.17;4.80;;;14.30;97.80;;;;;;5030827;28;20288;-76
2023/04/19 02:27:17;;;;;;;6.70;4.50;;;14.30;98.00;;;;;;5013476;28;20268;-77
2023/04/19 02:29:44;;;;;;;5.60;5.10;;;14.40;98.20;;;;;;5012828;28;20620;-76
2023/04/19 02:32:11;;;;;;;6.35;4.65;;;14.30;98.10;;;;;;5029827;28;20178;-76
2023/04/19 02:34:37;;;;;;;4.05;3.65;;;14.30;98.30;;;;;;5029581;28;20180;-75
2023/04/19 02:37:03;;;;;;;5.67;4.70;;;14.40;98.40;;;;;;5013372;28;20601;-76
2023/04/19 02:39:29;;;;;;;6.80;5.00;;;14.40;98.50;;;;;;5013011;28;20588;-75
2023/04/19 02:41:55;;;;;;;5.20;4.43;;;14.30;98.60;;;;;;5013514;28;20178;-76
2023/04/19 02:44:21;;;;;;;5.35;4.32;;;14.40;98.70;;;;;;5029930;28;20293;-76
2023/04/19 02:46:51;;;;;;;6.80;5.23;;;14.30;98.90;;;;;;5029383;28;20260;-76
2023/04/19 02:49:18;;;;;;;7.22;5.07;;;14.40;99.00;;;;;;5031297;28;20628;-76
2023/04/19 02:51:45;;;;;;;6.38;5.03;;;14.40;99.00;;;;;;5029334;28;20276;-76
2023/04/19 02:54:13;;;;;;;10.18;6.82;;;14.40;99.20;;;;;;5029929;28;20537;-76
2023/04/19 02:56:40;;;;;;;7.60;6.03;;;14.40;99.30;;;;;;5012776;28;20681;-76
2023/04/19 02:59:05;;;;;;;9.20;7.17;;;14.30;99.30;;;;;;5031163;28;20675;-76
2023/04/19 03:01:32;;;;;;;6.32;5.72;;;14.30;99.30;;;;;;5012908;28;20205;-76
2023/04/19 03:04:01;;;;;;;9.60;7.70;;;14.30;99.30;;;;;;5013249;28;20178;-76
2023/04/19 03:06:27;;;;;;;9.50;6.93;;;14.30;99.40;;;;;;5012864;28;20221;-76
2023/04/19 03:08:52;;;;;;;9.70;7.63;;;14.30;99.50;;;;;;5012713;28;20659;-75
2023/04/19 03:11:18;;;;;;;9.80;8.10;;;14.20;99.50;;;;;;5029492;28;20205;-76
2023/04/19 03:13:45;;;;;;;9.40;8.40;;;14.30;99.60;;;;;;5030433;28;20170;-76
2023/04/19 03:16:13;;;;;;;8.52;7.18;;;14.20;99.80;;;;;;5012826;28;20227;-76
2023/04/19 03:18:39;;;;;;;8.32;7.53;;;14.20;99.80;;;;;;5028830;28;20177;-76
2023/04/19 03:21:08;;;;;;;9.80;7.78;;;14.20;99.90;;;;;;5011727;28;20697;-76
2023/04/19 03:23:44;;;;;;;9.98;7.93;;;14.20;99.90;;;;;;5012669;28;20209;-76
2023/04/19 03:26:10;;;;;;;9.47;8.40;;;14.10;99.90;;;;;;4996022;28;20668;-76
2023/04/19 03:28:45;;;;;;;8.23;7.43;;;14.10;99.90;;;;;;5029509;28;20638;-77
2023/04/19 03:31:20;;;;;;;8.25;7.45;;;14.10;99.90;;;;;;5013892;28;20185;-76
2023/04/19 03:33:49;;;;;;;8.82;7.93;;;14.10;99.90;;;;;;4997023;28;20170;-76
2023/04/19 03:36:15;;;;;;;7.90;7.20;;;14.10;99.90;;;;;;5028489;28;20836;-76
2023/04/19 03:38:43;;;;;;;9.70;7.33;;;14.00;99.90;;;;;;5030909;28;20166;-76
2023/04/19 03:41:23;;;;;;;8.25;7.45;;;14.00;99.90;;;;;;4997094;28;20672;-75
2023/04/19 03:43:58;;;;;;;7.15;6.30;;;14.00;99.90;;;;;;5016655;28;20212;-76
2023/04/19 03:46:24;;;;;;;7.80;7.10;;;14.00;99.90;;;;;;5033701;28;20594;-75
2023/04/19 03:48:51;;;;;;;8.07;7.28;;;14.00;99.90;;;;;;5016654;28;20628;-75
2023/04/19 03:51:18;;;;;;;7.53;6.68;;;14.00;99.90;;;;;;5033061;28;20523;-76
2023/04/19 03:53:44;;;;;;;8.20;7.40;;;14.00;99.90;;;;;;5032763;28;20196;-76
2023/04/19 03:56:10;;;;;;;8.27;6.53;;;14.00;99.90;;;;;;5032825;28;20608;-75
2023/04/19 03:58:36;;;;;;;8.32;7.53;;;14.00;99.90;;;;;;5032683;28;20185;-76
2023/04/19 04:01:07;;;;;;;7.05;6.03;;;14.00;99.90;;;;;;5016422;28;20707;-76
2023/04/19 04:03:33;;;;;;;7.07;6.38;;;14.00;99.90;;;;;;5016157;28;20261;-76
2023/04/19 04:06:01;;;;;;;8.48;6.93;;;14.00;99.90;;;;;;5015744;28;20236;-75
2023/04/19 04:08:27;;;;;;;8.10;7.35;;;13.90;99.90;;;;;;5031853;28;20231;-75
2023/04/19 04:10:54;;;;;;;6.63;6.00;;;13.90;99.90;;;;;;5016305;28;20632;-75
2023/04/19 04:13:20;;;;;;;9.93;8.02;;;13.90;99.90;;;;;;5015660;28;20276;-75
2023/04/19 04:15:56;;;;;;;7.30;6.60;;;13.90;99.90;;;;;;5031498;28;20193;-76
2023/04/19 04:18:22;;;;;;;7.30;6.30;;;13.90;99.90;;;;;;5033825;28;20668;-76
2023/04/19 04:20:48;;;;;;;7.75;6.95;;;13.90;99.90;;;;;;5012151;28;20257;-77
2023/04/19 04:23:15;;;;;;;6.53;5.60;;;13.90;99.90;;;;;;4999309;28;20260;-76
2023/04/19 04:25:46;;;;;;;7.97;7.18;;;13.90;99.90;;;;;;5031947;28;20232;-77
2023/04/19 04:28:13;;;;;;;6.45;5.82;;;13.90;99.90;;;;;;5015153;28;20512;-76
2023/04/19 04:30:40;;;;;;;7.25;6.43;;;13.90;99.90;;;;;;4998629;28;20166;-77
2023/04/19 04:33:10;;;;;;;7.78;7.00;;;13.90;99.90;;;;;;5031205;28;20173;-77
2023/04/19 04:35:38;;;;;;;6.90;6.20;;;13.80;99.90;;;;;;5031591;28;20193;-76
2023/04/19 04:38:09;;;;;;;8.95;8.05;;;13.90;99.90;;;;;;5032485;28;20180;-77
2023/04/19 04:40:36;;;;;;;6.90;6.20;;;13.80;99.90;;;;;;5015978;28;20173;-77
2023/04/19 04:43:03;;;;;;;8.30;7.30;;;13.80;99.90;;;;;;5032238;28;20178;-77
2023/04/19 04:45:30;;;;;;;8.38;7.38;;;13.80;99.90;;;;;;5032817;28;20281;-77
2023/04/19 04:47:57;;;;;;;6.70;5.97;;;13.90;99.90;;;;;;5015915;28;20178;-77
2023/04/19 04:50:23;;;;;;;6.27;5.63;;;13.80;99.90;;;;;;5015679;28;20228;-77
2023/04/19 04:52:49;;;;;;;9.53;6.73;;;13.90;99.90;;;;;;5015117;28;20173;-77
2023/04/19 04:55:20;;;;;;;7.82;6.78;;;13.90;99.90;;;;;;4999964;28;20615;-77
2023/04/19 04:57:46;;;;;;;8.02;5.50;;;13.90;99.90;;;;;;5032301;28;20201;-77
2023/04/19 05:00:21;;;;;;;7.82;7.03;;;13.90;99.90;;;;;;5031891;28;20177;-78
2023/04/19 05:02:56;;;;;;;5.82;5.00;;;13.90;99.90;;;;;;5015776;28;20746;-76
2023/04/19 05:05:23;;;;;;;7.35;6.65;;;13.90;99.90;;;;;;5014827;28;20197;-77
2023/04/19 05:07:48;;;;;;;6.53;5.93;;;13.90;99.90;;;;;;5015143;28;20166;-77
2023/04/19 05:10:14;;;;;;;8.70;6.10;;;13.90;99.90;;;;;;5001221;28;20639;-77
2023/04/19 05:12:44;;;;;;;6.50;5.90;;;13.90;99.90;;;;;;5014932;28;20197;-77
2023/04/19 05:15:13;;;;;;;7.18;6.25;;;13.90;99.90;;;;;;5031391;28;20196;-77
2023/04/19 05:17:44;;;;;;;10.50;6.85;;;13.90;99.90;;;;;;5031777;28;20743;-78
2023/04/19 05:20:11;;;;;;;7.03;6.25;;;13.90;99.90;;;;;;5030919;28;20201;-77
2023/04/19 05:22:37;;;;;;;7.35;5.63;;;14.00;99.90;;;;;;5031653;28;20231;-78
2023/04/19 05:25:06;;;;;;;6.57;5.93;;;14.00;99.90;;;;;;5031659;28;20327;-78
2023/04/19 05:27:32;;;;;;;8.52;6.85;;;14.00;99.90;;;;;;5014473;28;20177;-78
2023/04/19 05:29:57;;;;;;;12.00;7.60;;;14.00;99.90;;;;;;5014997;28;20212;-77
2023/04/19 05:32:23;;;;;;;6.73;5.90;;;14.00;99.90;;;;;;5030730;28;20514;-77
2023/04/19 05:34:53;;;;;;;7.05;5.72;;;14.00;99.90;;;;;;5031469;28;20619;-77
2023/04/19 05:37:23;;;;;;;9.13;6.32;;;14.10;99.90;;;;;;5032321;28;20216;-77
2023/04/19 05:39:49;;;;;;;11.55;6.03;;;14.10;99.90;;;;;;5014898;28;20188;-76
2023/04/19 05:42:14;;;;;;;6.93;6.05;;;14.10;99.90;;;;;;5032112;28;20201;-76
2023/04/19 05:44:40;;;;;;;9.13;6.13;;;14.10;99.90;;;;;;5014768;28;20782;-77
2023/04/19 05:47:06;;;;;;;6.03;5.37;;;14.10;99.90;;;;;;5031513;28;20170;-77
2023/04/19 05:49:50;;;;;;;7.13;6.35;;;14.20;99.90;;;;;;5031076;28;20652;-77
2023/04/19 05:52:24;;;;;;;7.32;6.38;;;14.20;99.90;;;;;;5030975;28;20174;-77
2023/04/19 05:54:53;;;;;;;5.43;4.93;;;14.20;99.90;;;;;;5030544;28;20193;-76
2023/04/19 05:57:19;;;;;;;9.10;7.38;;;14.20;99.90;;;;;;5016164;28;20731;-77
2023/04/19 05:59:45;;;;;;;7.70;6.50;;;14.30;99.90;;;;;;5014372;28;20442;-77
2023/04/19 06:02:14;;;;;;;7.25;6.55;;;14.20;99.90;;;;;;5030568;28;20185;-76
2023/04/19 06:04:40;;;;;;;7.90;7.10;;;14.20;99.90;;;;;;5013203;28;20173;-76
2023/04/19 06:07:06;;;;;;;7.10;6.40;;;14.30;99.90;;;;;;5013379;28;20637;-77
2023/04/19 06:09:32;;;;;;;8.00;6.37;;;14.30;99.90;;;;;;5013607;28;21222;-76
2023/04/19 06:11:58;;;;;;;6.68;6.07;;;14.30;99.90;;;;;;5013922;28;20573;-77
2023/04/19 06:14:28;;;;;;;7.50;6.33;;;14.30;99.90;;;;;;5030669;28;20176;-77
2023/04/19 06:16:54;;;;;;;6.00;5.05;;;14.30;99.90;;;;;;5013435;28;20169;-77
2023/04/19 06:19:20;;;;;;;7.25;5.80;;;14.30;99.90;;;;;;5030695;28;20177;-77
2023/04/19 06:21:46;;;;;;;7.07;6.37;;;14.20;99.90;;;;;;5030120;28;20649;-77
2023/04/19 06:24:12;;;;;;;6.25;5.65;;;14.30;99.90;;;;;;5030646;28;20257;-77
2023/04/19 06:26:38;;;;;;;6.77;6.10;;;14.30;99.90;;;;;;5030579;28;20773;-76
2023/04/19 06:29:03;;;;;;;6.87;5.10;;;14.30;99.90;;;;;;5031191;28;20228;-77
2023/04/19 06:31:29;;;;;;;6.90;5.90;;;14.30;99.90;;;;;;4996746;28;20259;-77
2023/04/19 06:33:55;;;;;;;7.20;4.83;;;14.40;99.90;;;;;;5031304;28;21135;-77
2023/04/19 06:36:21;;;;;;;5.97;5.37;;;14.40;99.90;;;;;;5030380;28;20993;-76
2023/04/19 06:38:48;;;;;;;4.50;4.10;;;14.50;99.90;;;;;;5032471;28;20566;-77
2023/04/19 06:41:14;;;;;;;5.97;4.28;;;14.50;99.90;;;;;;5037430;28;20184;-77
2023/04/19 06:43:41;;;;;;;5.43;4.70;;;14.50;99.90;;;;;;5029376;28;20554;-77
2023/04/19 06:46:08;;;;;;;4.17;3.77;;;14.60;99.90;;;;;;5013397;28;20631;-77
2023/04/19 06:48:34;;;;;;;3.90;3.50;;;14.60;99.90;;;;;;5029592;28;20635;-76
2023/04/19 06:51:00;;;;;;;5.53;4.63;;;14.60;99.90;;;;;;5030313;28;20600;-77
2023/04/19 06:53:27;;;;;;;4.72;4.05;;;14.60;99.90;;;;;;5029719;28;20576;-76
2023/04/19 06:55:58;;;;;;;5.20;4.40;;;14.70;99.90;;;;;;5030756;28;20189;-77
2023/04/19 06:58:24;;;;;;;4.33;3.87;;;14.70;99.90;;;;;;5029937;28;20253;-76
2023/04/19 07:00:50;;;;;;;4.60;3.40;;;14.80;99.90;;;;;;5059232;23;20770;-74
2023/04/19 07:03:16;;;;;;;5.00;4.50;;;14.90;99.90;;;;;;5009623;28;20200;-74
2023/04/19 07:05:42;;;;;;;4.03;3.50;;;15.00;99.90;;;;;;5031500;28;20626;-74
2023/04/19 07:08:07;;;;;;;4.97;4.47;;;15.10;99.90;;;;;;5050865;28;20180;-73
2023/04/19 07:10:33;;;;;;;5.57;3.90;;;15.30;99.90;;;;;;5038842;28;20200;-73
2023/04/19 07:12:59;;;;;;;5.47;3.80;;;15.50;99.90;;;;;;5030644;28;20274;-74
2023/04/19 07:15:25;;;;;;;4.20;3.50;;;15.60;99.90;;;;;;5039257;28;20559;-73
2023/04/19 07:17:51;;;;;;;5.30;3.90;;;15.90;99.90;;;;;;5019266;28;20200;-73
2023/04/19 07:20:17;;;;;;;4.90;3.60;;;16.10;99.90;;;;;;5020803;28;20655;-73
2023/04/19 07:22:42;;;;;;;4.27;3.80;;;16.30;99.90;;;;;;5048038;28;20234;-71
2023/04/19 07:25:09;;;;;;;5.10;3.90;;;16.40;99.90;;;;;;5039953;28;21115;-72
2023/04/19 07:27:35;;;;;;;4.80;3.87;;;16.60;99.90;;;;;;5054359;28;20176;-72
2023/04/19 07:30:00;;;;;;;4.10;3.80;;;16.70;99.90;;;;;;5037004;28;20738;-71
2023/04/19 07:32:27;;;;;;;4.83;3.30;;;17.00;99.90;;;;;;5036339;28;20169;-72
2023/04/19 07:34:52;;;;;;;6.80;3.43;;;17.30;99.90;;;;;;5036988;28;21184;-72
2023/04/19 07:37:19;;;;;;;4.37;3.03;;;17.90;99.90;;;;;;5054094;28;20530;-72
2023/04/19 07:39:44;;;;;;;2.70;2.27;;;18.50;99.90;;;;;;5036865;28;20212;-72
2023/04/19 07:42:10;;;;;;;4.00;3.30;;;19.20;99.90;;;;;;5036648;28;20626;-72
2023/04/19 07:44:36;;;;;;;2.37;2.10;;;20.20;99.90;;;;;;5036275;28;20625;-72
2023/04/19 07:47:04;;;;;;;3.87;2.83;;;21.30;99.90;;;;;;5036750;28;20173;-73
2023/04/19 07:49:32;;;;;;;3.60;2.23;;;22.30;99.90;;;;;;5054069;28;20234;-72
2023/04/19 07:52:00;;;;;;;3.63;2.27;;;23.30;99.40;;;;;;5054389;28;20580;-72
2023/04/19 07:54:26;;;;;;;3.80;2.50;;;24.20;98.60;;;;;;5054198;28;20934;-72
2023/04/19 07:56:52;;;;;;;2.83;2.00;;;24.70;96.70;;;;;;5036393;28;20589;-72
2023/04/19 07:59:18;;;;;;;2.70;2.20;;;25.40;95.60;;;;;;5038933;28;20185;-72
2023/04/19 08:01:43;;;;;;;2.87;2.60;;;25.90;91.80;;;;;;5022959;28;20185;-72
2023/04/19 08:04:09;;;;;;;2.63;1.80;;;26.00;88.40;;;;;;5034242;28;20209;-72
2023/04/19 08:06:36;;;;;;;2.50;1.93;;;25.80;84.30;;;;;;5016081;28;20189;-72
2023/04/19 08:09:03;;;;;;;3.30;2.33;;;25.30;73.90;;;;;;5034087;28;20236;-72
2023/04/19 08:11:28;;;;;;;3.23;2.67;;;24.90;72.70;;;;;;5033340;28;20961;-72
2023/04/19 08:13:54;;;;;;;3.03;2.03;;;24.50;72.10;;;;;;5036028;28;20577;-72
2023/04/19 08:16:20;;;;;;;2.93;2.07;;;24.50;74.40;;;;;;5016936;28;20649;-73
2023/04/19 08:18:47;;;;;;;3.00;2.23;;;24.70;74.40;;;;;;5015873;28;20599;-72
2023/04/19 08:21:13;;;;;;;2.40;1.90;;;24.80;74.70;;;;;;5032994;28;20194;-72
2023/04/19 08:23:38;;;;;;;3.43;1.60;;;25.20;75.90;;;;;;5033945;28;20579;-72
2023/04/19 08:26:04;;;;;;;4.00;2.50;;;25.80;76.80;;;;;;5033482;28;20170;-72
2023/04/19 08:28:31;;;;;;;4.57;2.07;;;26.50;74.60;;;;;;5013834;28;20205;-73
2023/04/19 08:30:58;;;;;;;3.40;2.47;;;26.90;73.50;;;;;;5032778;28;20630;-72
2023/04/19 08:33:23;;;;;;;3.10;2.40;;;27.50;72.50;;;;;;5033103;28;20161;-72
2023/04/19 08:35:49;;;;;;;5.90;2.17;;;28.10;71.10;;;;;;4998885;28;20586;-72
2023/04/19 08:38:15;;;;;;;2.83;2.10;;;28.40;68.80;;;;;;5015429;28;20162;-72
2023/04/19 08:40:50;;;;;;;6.07;2.27;;;28.40;66.60;;;;;;5033600;28;20221;-73
2023/04/19 08:43:17;;;;;;;3.30;2.50;;;28.60;64.50;;;;;;5033170;28;20638;-73
2023/04/19 08:45:46;;;;;;;2.23;2.00;;;28.80;63.40;;;;;;5032997;28;20584;-73
2023/04/19 08:48:14;;;;;;;3.93;2.50;;;29.10;60.60;;;;;;5033185;28;21070;-73
2023/04/19 08:50:47;;;;;;;2.57;2.30;;;29.30;58.70;;;;;;5015182;28;20614;-71
2023/04/19 08:53:15;;;;;;;3.13;2.17;;;29.60;58.50;;;;;;5015516;28;20581;-71
2023/04/19 08:55:42;;;;;;;3.43;2.80;;;30.00;58.30;;;;;;5032889;28;20596;-72
2023/04/19 08:58:08;;;;;;;3.63;2.20;;;30.40;57.00;;;;;;5015443;28;20592;-72
2023/04/19 09:00:37;;;;;;;2.27;1.90;;;30.70;55.20;;;;;;5032168;28;21079;-71
2023/04/19 09:03:06;;;;;;;2.90;2.10;;;31.00;54.60;;;;;;5015172;28;20645;-72
2023/04/19 09:05:32;;;;;;;4.73;2.40;;;31.30;52.70;;;;;;5032742;28;20998;-72
2023/04/19 09:08:28;;;;;;;3.27;2.40;;;31.40;52.80;;;;;;5032625;28;20613;-72
2023/04/19 09:11:00;;;;;;;2.33;2.13;;;31.70;52.60;;;;;;5012879;28;20564;-72
2023/04/19 09:13:28;;;;;;;2.97;1.83;;;31.90;51.60;;;;;;5014190;28;20625;-72
2023/04/19 09:15:59;;;;;;;6.13;2.40;;;32.10;50.40;;;;;;4998534;28;20583;-72
2023/04/19 09:18:25;;;;;;;3.07;1.97;;;32.30;50.20;;;;;;5032096;28;20577;-72
2023/04/19 09:20:58;;;;;;;4.00;1.80;;;32.50;49.50;;;;;;5011299;28;20617;-72
2023/04/19 09:23:25;;;;;;;2.67;2.03;;;32.60;48.70;;;;;;5014444;28;20592;-72
2023/04/19 09:25:52;;;;;;;3.07;2.47;;;32.70;47.00;;;;;;4998532;28;20639;-72
2023/04/19 09:28:18;;;;;;;3.37;2.00;;;32.80;45.80;;;;;;5032311;28;20582;-71
2023/04/19 09:30:44;;;;;;;2.60;1.80;;;32.90;44.60;;;;;;5031928;28;20592;-71
2023/04/19 09:33:10;;;;;;;3.20;2.17;;;32.90;43.80;;;;;;5032540;28;20187;-72
2023/04/19 09:36:02;;;;;;;2.83;1.93;;;32.90;43.50;;;;;;5013988;28;20167;-71
2023/04/19 09:38:28;;;;;;;2.80;2.03;;;32.70;40.30;;;;;;5027929;28;20190;-71
2023/04/19 09:41:07;;;;;;;3.50;1.77;;;32.60;42.00;;;;;;5031443;28;20603;-71
2023/04/19 09:43:34;;;;;;;2.80;1.37;;;32.50;40.80;;;;;;5032418;28;20574;-71
2023/04/19 09:46:00;;;;;;;2.37;1.67;;;32.30;41.00;;;;;;5013904;28;21146;-71
2023/04/19 09:48:26;;;;;;;3.13;1.43;;;32.30;40.50;;;;;;5014437;28;20180;-72
2023/04/19 09:51:00;;;;;;;1.90;1.30;;;32.10;40.80;;;;;;5016499;28;20634;-72
2023/04/19 09:53:29;;;;;;;2.70;1.87;;;32.30;40.50;;;;;;5003372;28;20408;-71
2023/04/19 09:55:55;;;;;;;2.80;2.27;;;32.40;39.40;;;;;;5012274;28;20949;-72
2023/04/19 09:58:21;;;;;;;2.87;2.10;;;32.30;39.00;;;;;;4994301;28;20574;-72
2023/04/19 10:00:49;;;;;;;2.70;1.97;;;32.20;38.00;;;;;;4994372;28;20218;-72
2023/04/19 10:03:15;;;;;;;2.00;1.50;;;32.10;38.40;;;;;;5010493;28;20946;-72
2023/04/19 10:05:43;;;;;;;5.20;1.63;;;32.00;38.70;;;;;;4994399;28;20614;-72
2023/04/19 10:08:11;;;;;;;4.17;1.37;;;32.10;38.60;;;;;;4993549;28;20610;-72
2023/04/19 10:10:39;;;;;;;2.63;1.70;;;32.10;38.10;;;;;;4994173;28;21244;-72
2023/04/19 10:13:07;;;;;;;3.10;1.57;;;32.00;36.30;;;;;;5010336;28;20623;-72
2023/04/19 10:15:35;;;;;;;2.23;1.70;;;31.70;36.60;;;;;;5010289;28;20710;-71
2023/04/19 10:18:06;;;;;;;2.40;2.10;;;31.50;35.10;;;;;;4994230;28;20592;-72
2023/04/19 10:20:48;;;;;;;2.57;1.57;;;31.30;35.60;;;;;;5011249;28;20613;-72
2023/04/19 10:23:19;;;;;;;2.67;1.60;;;31.30;36.20;;;;;;5004006;28;21171;-80
2023/04/19 10:25:46;;;;;;;3.20;1.97;;;31.30;36.30;;;;;;4993391;28;20590;-81
2023/04/19 10:28:12;;;;;;;3.10;2.00;;;31.20;34.60;;;;;;5011528;28;20650;-80
2023/04/19 10:31:01;;;;;;;2.03;1.30;;;31.00;35.00;;;;;;4993775;28;21032;-80
2023/04/19 10:33:39;;;;;;;2.57;1.97;;;30.60;32.20;;;;;;4994148;28;20586;-79
2023/04/19 10:36:08;;;;;;;2.87;1.57;;;30.50;33.10;;;;;;4993577;28;20601;-79
2023/04/19 10:38:45;;;;;;;3.53;1.50;;;30.10;32.80;;;;;;4994180;28;20602;-79
2023/04/19 10:41:13;;;;;;;2.67;1.80;;;29.80;34.10;;;;;;5011665;28;20605;-79
2023/04/19 10:43:40;;;;;;;2.67;1.47;;;29.30;33.30;;;;;;5011346;28;20613;-79
2023/04/19 10:46:19;;;;;;;2.37;1.60;;;29.10;34.10;;;;;;4993706;28;20655;-80
2023/04/19 10:48:52;;;;;;;2.97;1.63;;;28.70;32.80;;;;;;5025011;28;20628;-80
2023/04/19 10:51:20;;;;;;;2.00;1.20;;;28.20;33.70;;;;;;5030772;28;20631;-81
2023/04/19 10:54:00;;;;;;;2.57;1.00;;;28.00;34.50;;;;;;5030758;28;20584;-81
2023/04/19 10:56:33;;;;;;;3.73;1.70;;;28.00;35.10;;;;;;5012517;28;20671;-81
2023/04/19 10:59:06;;;;;;;1.90;1.37;;;28.10;34.40;;;;;;5030585;28;21143;-80
2023/04/19 11:01:45;;;;;;;3.63;1.10;;;28.20;34.90;;;;;;5013240;28;20639;-80
2023/04/19 11:04:13;;;;;;;1.80;1.23;;;28.40;34.30;;;;;;5030679;28;20568;-80
2023/04/19 11:06:53;;;;;;;2.00;1.40;;;28.50;34.90;;;;;;5030903;28;20585;-81
2023/04/19 11:09:23;;;;;;;2.60;1.50;;;28.60;33.40;;;;;;5012926;28;20684;-81
2023/04/19 11:11:49;;;;;;;2.47;1.40;;;28.80;35.50;;;;;;4996772;28;20626;-80
2023/04/19 11:14:15;;;;;;;2.80;1.40;;;28.90;35.80;;;;;;5013135;28;20667;-80
2023/04/19 11:16:41;;;;;;;2.37;2.00;;;28.90;35.00;;;;;;5030326;28;21070;-80
2023/04/19 11:19:07;;;;;;;2.07;1.23;;;28.80;34.70;;;;;;5013300;28;20665;-80
2023/04/19 11:21:37;;;;;;;3.60;1.50;;;28.70;34.50;;;;;;5035519;28;20193;-80
2023/04/19 11:24:10;;;;;;;4.63;1.53;;;28.60;34.40;;;;;;4996946;28;20279;-80
2023/04/19 11:26:36;;;;;;;2.43;1.80;;;28.30;33.80;;;;;;5012397;28;20670;-80
2023/04/19 11:29:03;;;;;;;3.00;1.37;;;28.00;33.50;;;;;;5013082;28;20642;-79
2023/04/19 11:31:32;;;;;;;9.47;1.73;;;27.70;33.50;;;;;;5030413;28;20631;-80
2023/04/19 11:33:59;;;;;;;2.50;1.57;;;27.50;33.70;;;;;;5013011;28;20595;-79
2023/04/19 11:36:25;;;;;;;2.20;1.50;;;27.20;32.90;;;;;;5030288;28;20585;-80
2023/04/19 11:38:52;;;;;;;2.37;1.40;;;26.90;32.80;;;;;;5012997;28;21160;-81
2023/04/19 11:41:17;;;;;;;2.90;1.53;;;26.60;33.40;;;;;;5012874;28;20608;-80
2023/04/19 11:43:45;;;;;;;3.20;1.77;;;26.40;33.40;;;;;;5011867;28;20767;-81
2023/04/19 11:46:12;;;;;;;2.30;1.10;;;26.20;33.30;;;;;;5012539;28;20175;-80
2023/04/19 11:48:48;;;;;;;2.57;1.23;;;26.10;33.90;;;;;;5012505;28;20624;-80
2023/04/19 11:51:14;;;;;;;4.57;1.77;;;26.10;33.50;;;;;;5012723;28;20620;-81
2023/04/19 11:53:40;;;;;;;3.50;1.50;;;26.00;33.40;;;;;;5030547;28;20591;-80
2023/04/19 11:56:07;;;;;;;2.83;1.20;;;25.80;32.90;;;;;;5011686;28;20588;-80
2023/04/19 11:58:43;;;;;;;2.20;1.23;;;25.70;33.50;;;;;;5030397;28;20587;-80
2023/04/19 12:01:18;;;;;;;7.33;1.60;;;25.70;33.70;;;;;;5012160;28;20631;-80
2023/04/19 12:03:47;;;;;;;4.87;1.10;;;25.50;31.90;;;;;;5017752;28;20604;-79
2023/04/19 12:06:16;;;;;;;3.20;1.10;;;25.50;33.40;;;;;;5033420;28;20670;-79
2023/04/19 12:08:44;;;;;;;3.90;1.40;;;25.40;33.10;;;;;;5016190;28;21012;-80
2023/04/19 12:11:10;;;;;;;2.47;1.43;;;25.30;33.00;;;;;;5015670;28;20616;-79
2023/04/19 12:13:36;;;;;;;2.33;1.00;;;25.20;32.90;;;;;;4999853;28;20627;-81
2023/04/19 12:16:02;;;;;;;3.23;1.30;;;25.00;32.60;;;;;;5033849;28;20182;-80
2023/04/19 12:18:43;;;;;;;3.53;1.10;;;24.90;32.90;;;;;;5033346;28;20934;-80
2023/04/19 12:21:10;;;;;;;2.27;1.00;;;24.70;31.90;;;;;;5033377;28;20623;-79
2023/04/19 12:23:35;;;;;;;1.60;0.90;;;24.50;32.30;;;;;;5015888;28;21154;-80
2023/04/19 12:26:07;;;;;;;2.60;0.90;;;24.30;31.10;;;;;;5033565;28;20576;-81
2023/04/19 12:28:32;;;;;;;2.60;0.90;;;24.00;31.60;;;;;;5033563;28;20267;-78
2023/04/19 12:30:58;;;;;;;1.97;1.10;;;23.70;31.70;;;;;;5018218;28;21234;-79
2023/04/19 12:33:24;;;;;;;3.83;1.50;;;23.50;31.80;;;;;;5044176;28;20176;-79
2023/04/19 12:35:50;;;;;;;2.50;1.20;;;23.30;31.50;;;;;;5052301;28;20161;-79
2023/04/19 12:38:15;;;;;;;3.80;1.37;;;23.10;31.70;;;;;;5011135;28;20586;-80
2023/04/19 12:40:42;;;;;;;1.83;1.00;;;22.90;31.50;;;;;;5020102;28;20200;-79
2023/04/19 12:43:07;;;;;;;2.20;1.00;;;22.70;32.10;;;;;;5044145;28;20192;-79
2023/04/19 12:45:33;;;;;;;2.23;0.90;;;22.50;31.70;;;;;;5050218;28;20583;-73
2023/04/19 12:47:59;;;;;;;2.30;0.80;;;22.40;31.80;;;;;;5053656;28;20181;-72